createdAt,value
2018-04-10T00:01:15.005Z,13.40
2018-04-10T00:03:42.636Z,13.40
2018-04-10T00:06:10.194Z,13.40
2018-04-10T00:08:37.773Z,13.30
2018-04-10T00:11:05.340Z,13.30
2018-04-10T00:13:32.937Z,13.20
2018-04-10T00:16:00.502Z,13.20
2018-04-10T00:18:28.064Z,13.20
2018-04-10T00:20:55.650Z,13.20
2018-04-10T00:23:23.245Z,13.20
2018-04-10T00:25:50.813Z,13.20
2018-04-10T00:28:18.345Z,13.20
2018-04-10T00:30:45.893Z,13.20
2018-04-10T00:33:13.463Z,13.10
2018-04-10T00:35:41.009Z,13.10
2018-04-10T00:38:08.581Z,13.10
2018-04-10T00:40:36.129Z,13.00
2018-04-10T00:43:03.737Z,13.00
2018-04-10T00:45:31.306Z,13.00
2018-04-10T00:47:58.918Z,12.90
2018-04-10T00:50:26.486Z,12.80
2018-04-10T00:52:54.079Z,12.70
2018-04-10T00:55:21.674Z,12.60
2018-04-10T00:57:49.219Z,12.50
2018-04-10T01:00:16.812Z,12.40
2018-04-10T01:02:44.350Z,12.40
2018-04-10T01:05:11.964Z,12.40
2018-04-10T01:07:39.510Z,12.40
2018-04-10T01:10:07.121Z,12.40
2018-04-10T01:12:34.685Z,12.40
2018-04-10T01:15:02.251Z,12.40
2018-04-10T01:17:29.794Z,12.30
2018-04-10T01:19:57.376Z,12.20
2018-04-10T01:22:24.909Z,12.10
2018-04-10T01:24:52.671Z,12.10
2018-04-10T01:27:20.246Z,12.10
2018-04-10T01:29:47.822Z,12.10
2018-04-10T01:32:15.430Z,12.10
2018-04-10T01:34:43.004Z,12.10
2018-04-10T01:37:10.558Z,12.10
2018-04-10T01:39:38.110Z,12.10
2018-04-10T01:42:05.754Z,12.00
2018-04-10T01:44:33.285Z,12.00
2018-04-10T01:47:00.922Z,11.90
2018-04-10T01:49:28.528Z,11.90
2018-04-10T01:51:56.141Z,11.80
2018-04-10T01:54:23.652Z,11.80
2018-04-10T01:56:51.258Z,11.80
2018-04-10T01:59:18.816Z,11.80
2018-04-10T02:01:46.433Z,11.80
2018-04-10T02:04:13.982Z,11.80
2018-04-10T02:06:41.839Z,11.80
2018-04-10T02:09:09.402Z,11.80
2018-04-10T02:11:36.999Z,11.70
2018-04-10T02:14:04.552Z,11.70
2018-04-10T02:16:32.143Z,11.70
2018-04-10T02:18:59.734Z,11.70
2018-04-10T02:21:27.278Z,11.80
2018-04-10T02:23:54.842Z,11.80
2018-04-10T02:26:22.830Z,11.80
2018-04-10T02:28:50.390Z,11.80
2018-04-10T02:31:17.985Z,11.80
2018-04-10T02:33:45.582Z,11.80
2018-04-10T02:36:13.166Z,11.80
2018-04-10T02:38:40.740Z,11.80
2018-04-10T02:41:08.314Z,11.80
2018-04-10T02:43:35.903Z,11.80
2018-04-10T02:46:03.471Z,11.70
2018-04-10T02:48:31.063Z,11.70
2018-04-10T02:50:58.637Z,11.70
2018-04-10T02:53:26.222Z,11.70
2018-04-10T02:55:53.774Z,11.70
2018-04-10T02:58:21.360Z,11.70
2018-04-10T03:00:48.939Z,11.70
2018-04-10T03:03:16.610Z,11.70
2018-04-10T03:05:44.518Z,11.70
2018-04-10T03:08:12.074Z,11.70
2018-04-10T03:10:39.626Z,11.70
2018-04-10T03:13:07.210Z,11.70
2018-04-10T03:15:34.769Z,11.70
2018-04-10T03:18:02.350Z,11.80
2018-04-10T03:20:29.924Z,11.80
2018-04-10T03:22:57.542Z,11.80
2018-04-10T03:25:25.125Z,11.80
2018-04-10T03:27:52.687Z,11.80
2018-04-10T03:30:20.665Z,11.80
2018-04-10T03:32:48.285Z,11.80
2018-04-10T03:35:15.822Z,11.80
2018-04-10T03:37:43.397Z,11.80
2018-04-10T03:40:10.940Z,11.70
2018-04-10T03:42:38.518Z,11.60
2018-04-10T03:45:06.077Z,11.60
2018-04-10T03:47:33.662Z,11.60
2018-04-10T03:50:01.248Z,11.60
2018-04-10T03:52:28.807Z,11.60
2018-04-10T03:54:56.391Z,11.50
2018-04-10T03:57:23.919Z,11.60
2018-04-10T03:59:51.506Z,11.50
2018-04-10T04:02:19.067Z,11.50
2018-04-10T04:04:46.626Z,11.50
2018-04-10T04:07:14.149Z,11.40
2018-04-10T04:09:41.934Z,11.30
2018-04-10T04:12:09.479Z,11.30
2018-04-10T04:14:37.047Z,11.20
2018-04-10T04:17:16.201Z,11.10
2018-04-10T04:19:55.550Z,11.10
2018-04-10T04:22:34.802Z,11.00
2018-04-10T04:25:02.780Z,10.80
2018-04-10T04:27:30.397Z,10.80
2018-04-10T04:29:58.009Z,10.70
2018-04-10T04:32:25.559Z,10.60
2018-04-10T04:34:53.134Z,10.60
2018-04-10T04:37:20.699Z,10.60
2018-04-10T04:39:48.283Z,10.50
2018-04-10T04:42:15.831Z,10.60
2018-04-10T04:44:43.410Z,10.60
2018-04-10T04:47:10.949Z,10.60
2018-04-10T04:49:38.572Z,10.60
2018-04-10T04:52:06.167Z,10.60
2018-04-10T04:54:33.725Z,10.60
2018-04-10T04:57:01.294Z,10.60
2018-04-10T04:59:28.870Z,10.60
2018-04-10T05:01:56.494Z,10.60
2018-04-10T05:04:24.113Z,10.50
2018-04-10T05:06:51.696Z,10.50
2018-04-10T05:09:19.273Z,10.40
2018-04-10T05:11:46.873Z,10.40
2018-04-10T05:14:14.480Z,10.40
2018-04-10T05:16:42.075Z,10.40
2018-04-10T05:19:09.615Z,10.40
2018-04-10T05:21:37.226Z,10.40
2018-04-10T05:24:04.846Z,10.50
2018-04-10T05:26:32.468Z,10.60
2018-04-10T05:29:00.053Z,10.60
2018-04-10T05:31:27.630Z,10.70
2018-04-10T05:33:55.192Z,10.70
2018-04-10T05:36:22.822Z,10.70
2018-04-10T05:38:50.424Z,10.80
2018-04-10T05:41:18.019Z,10.90
2018-04-10T05:43:45.575Z,10.90
2018-04-10T05:46:13.172Z,10.90
2018-04-10T05:48:40.738Z,10.90
2018-04-10T05:51:08.314Z,11.00
2018-04-10T05:53:35.900Z,11.00
2018-04-10T05:56:03.462Z,11.10
2018-04-10T05:58:31.058Z,11.10
2018-04-10T06:00:58.614Z,11.10
2018-04-10T06:03:26.233Z,11.20
2018-04-10T06:05:53.806Z,11.20
2018-04-10T06:08:21.391Z,11.30
2018-04-10T06:10:48.954Z,11.40
2018-04-10T06:13:16.571Z,11.40
2018-04-10T06:15:44.171Z,11.60
2018-04-10T06:18:12.016Z,11.70
2018-04-10T06:20:48.522Z,11.90
2018-04-10T06:23:16.123Z,12.00
2018-04-10T06:25:43.701Z,12.20
2018-04-10T06:28:11.290Z,12.30
2018-04-10T06:30:49.365Z,12.50
2018-04-10T06:33:16.974Z,12.70
2018-04-10T06:35:49.118Z,12.90
2018-04-10T06:38:16.682Z,13.10
2018-04-10T06:40:45.461Z,13.20
2018-04-10T06:43:13.659Z,13.30
2018-04-10T06:45:42.367Z,13.60
2018-04-10T06:48:11.080Z,13.60
2018-04-10T06:50:39.094Z,14.00
2018-04-10T06:53:06.655Z,14.00
2018-04-10T06:55:34.232Z,14.20
2018-04-10T06:58:01.808Z,14.40
2018-04-10T07:00:29.349Z,14.70
2018-04-10T07:02:56.935Z,14.90
2018-04-10T07:05:24.489Z,15.00
2018-04-10T07:07:52.079Z,15.10
2018-04-10T07:10:19.622Z,15.20
2018-04-10T07:12:47.228Z,15.40
2018-04-10T07:15:14.776Z,15.60
2018-04-10T07:17:42.746Z,15.90
2018-04-10T07:20:10.298Z,15.90
2018-04-10T07:22:37.847Z,16.00
2018-04-10T07:25:05.446Z,16.00
2018-04-10T07:27:33.030Z,16.10
2018-04-10T07:30:00.662Z,16.10
2018-04-10T07:32:28.214Z,16.20
2018-04-10T07:34:55.795Z,16.20
2018-04-10T07:37:23.354Z,16.30
2018-04-10T07:39:51.074Z,16.50
2018-04-10T07:42:18.675Z,16.60
2018-04-10T07:44:46.287Z,16.80
2018-04-10T07:47:13.900Z,16.90
2018-04-10T07:49:41.484Z,17.10
2018-04-10T07:52:09.023Z,17.30
2018-04-10T07:54:36.604Z,17.30
2018-04-10T07:57:04.147Z,17.00
2018-04-10T07:59:31.727Z,17.10
2018-04-10T08:01:59.255Z,17.10
2018-04-10T08:04:26.832Z,17.30
2018-04-10T08:06:54.390Z,17.40
2018-04-10T08:09:21.968Z,17.50
2018-04-10T08:11:49.561Z,17.40
2018-04-10T08:14:17.133Z,17.60
2018-04-10T08:16:54.889Z,17.90
2018-04-10T08:19:22.485Z,18.30
2018-04-10T08:21:50.026Z,18.60
2018-04-10T08:24:17.641Z,18.70
2018-04-10T08:26:45.241Z,18.60
2018-04-10T08:29:12.837Z,18.50
2018-04-10T08:31:40.362Z,18.20
2018-04-10T08:34:07.944Z,18.00
2018-04-10T08:36:35.542Z,18.40
2018-04-10T08:39:03.105Z,19.10
2018-04-10T08:41:30.727Z,19.40
2018-04-10T08:43:58.284Z,19.50
2018-04-10T08:46:25.862Z,20.00
2018-04-10T08:48:53.411Z,19.90
2018-04-10T08:51:20.961Z,20.10
2018-04-10T08:53:48.530Z,20.50
2018-04-10T08:56:16.106Z,20.70
2018-04-10T08:58:49.762Z,20.90
2018-04-10T09:01:18.315Z,21.00
2018-04-10T09:03:45.862Z,21.00
2018-04-10T09:06:13.418Z,21.20
2018-04-10T09:08:40.971Z,21.60
2018-04-10T09:11:08.582Z,22.00
2018-04-10T09:13:37.250Z,21.80
2018-04-10T09:16:04.820Z,21.70
2018-04-10T09:18:32.373Z,21.90
2018-04-10T09:20:59.968Z,22.30
2018-04-10T09:23:27.502Z,22.30
2018-04-10T09:25:55.108Z,22.40
2018-04-10T09:28:22.713Z,22.60
2018-04-10T09:30:50.304Z,22.90
2018-04-10T09:33:17.854Z,23.20
2018-04-10T09:35:45.435Z,23.40
2018-04-10T09:38:13.573Z,23.20
2018-04-10T09:40:42.034Z,23.00
2018-04-10T09:43:10.754Z,23.00
2018-04-10T09:45:38.499Z,23.10
2018-04-10T09:48:06.070Z,23.30
2018-04-10T09:50:33.646Z,23.40
2018-04-10T09:53:01.191Z,23.70
2018-04-10T09:55:28.789Z,23.90
2018-04-10T09:57:56.804Z,24.10
2018-04-10T10:00:30.228Z,24.10
2018-04-10T10:03:05.299Z,24.60
2018-04-10T10:05:32.866Z,24.70
2018-04-10T10:08:00.578Z,25.00
2018-04-10T10:10:36.158Z,25.20
2018-04-10T10:13:03.787Z,25.50
2018-04-10T10:15:31.729Z,25.80
2018-04-10T10:17:59.602Z,25.80
2018-04-10T10:20:27.186Z,25.80
2018-04-10T10:22:54.927Z,26.00
2018-04-10T10:25:23.833Z,25.80
2018-04-10T10:27:51.451Z,25.90
2018-04-10T10:30:19.117Z,25.80
2018-04-10T10:32:47.513Z,25.70
2018-04-10T10:35:15.067Z,25.10
2018-04-10T10:37:42.626Z,24.70
2018-04-10T10:40:10.185Z,24.70
2018-04-10T10:42:37.763Z,25.00
2018-04-10T10:45:05.330Z,25.40
2018-04-10T10:47:32.921Z,25.40
2018-04-10T10:50:00.538Z,25.50
2018-04-10T10:52:28.154Z,25.40
2018-04-10T10:54:55.698Z,25.60
2018-04-10T10:57:23.259Z,25.00
2018-04-10T10:59:50.890Z,24.80
2018-04-10T11:02:18.461Z,24.80
2018-04-10T11:04:46.028Z,25.10
2018-04-10T11:07:19.992Z,25.30
2018-04-10T11:09:47.935Z,24.80
2018-04-10T11:12:15.803Z,25.00
2018-04-10T11:14:43.540Z,24.60
2018-04-10T11:17:11.202Z,23.30
2018-04-10T11:19:38.763Z,23.10
2018-04-10T11:22:08.583Z,22.60
2018-04-10T11:24:36.154Z,22.80
2018-04-10T11:27:03.722Z,23.40
2018-04-10T11:29:31.369Z,24.20
2018-04-10T11:31:58.914Z,24.60
2018-04-10T11:34:26.506Z,24.30
2018-04-10T11:36:54.043Z,23.70
2018-04-10T11:39:21.623Z,23.30
2018-04-10T11:41:49.191Z,22.50
2018-04-10T11:44:16.758Z,22.00
2018-04-10T11:46:44.351Z,21.60
2018-04-10T11:49:11.902Z,21.90
2018-04-10T11:51:39.491Z,22.20
2018-04-10T11:54:07.054Z,21.80
2018-04-10T11:56:34.586Z,22.40
2018-04-10T11:59:02.315Z,22.40
2018-04-10T12:01:29.886Z,22.60
2018-04-10T12:03:57.492Z,22.90
2018-04-10T12:06:25.043Z,22.90
2018-04-10T12:08:52.691Z,22.90
2018-04-10T12:11:20.232Z,23.70
2018-04-10T12:13:47.844Z,24.50
2018-04-10T12:16:15.391Z,25.30
2018-04-10T12:18:42.971Z,25.80
2018-04-10T12:21:10.589Z,26.40
2018-04-10T12:23:38.181Z,26.20
2018-04-10T12:26:05.750Z,26.60
2018-04-10T12:28:33.322Z,27.00
2018-04-10T12:31:00.908Z,27.50
2018-04-10T12:33:28.458Z,27.60
2018-04-10T12:35:56.078Z,27.60
2018-04-10T12:38:23.699Z,26.70
2018-04-10T12:40:52.116Z,25.80
2018-04-10T12:43:19.673Z,24.60
2018-04-10T12:45:47.290Z,23.90
2018-04-10T12:48:14.846Z,24.10
2018-04-10T12:50:42.398Z,24.50
2018-04-10T12:53:09.955Z,25.40
2018-04-10T12:55:37.506Z,26.30
2018-04-10T12:58:05.058Z,26.70
2018-04-10T13:00:33.578Z,27.00
2018-04-10T13:03:01.106Z,26.90
2018-04-10T13:05:28.720Z,26.50
2018-04-10T13:07:56.287Z,26.00
2018-04-10T13:10:23.882Z,25.30
2018-04-10T13:12:51.459Z,25.20
2018-04-10T13:15:19.525Z,24.90
2018-04-10T13:17:47.082Z,24.40
2018-04-10T13:20:14.983Z,24.40
2018-04-10T13:22:55.219Z,24.10
2018-04-10T13:25:23.176Z,24.20
2018-04-10T13:27:50.726Z,23.70
2018-04-10T13:30:18.341Z,22.70
2018-04-10T13:32:45.880Z,22.10
2018-04-10T13:35:13.476Z,21.50
2018-04-10T13:37:41.044Z,20.80
2018-04-10T13:40:08.638Z,19.80
2018-04-10T13:42:36.186Z,18.60
2018-04-10T13:45:03.767Z,17.30
2018-04-10T13:47:31.328Z,16.00
2018-04-10T13:49:58.967Z,15.40
2018-04-10T13:52:26.515Z,15.10
2018-04-10T13:54:54.100Z,15.00
2018-04-10T13:57:22.002Z,14.90
2018-04-10T13:59:49.618Z,14.90
2018-04-10T14:02:17.173Z,15.00
2018-04-10T14:04:45.247Z,15.10
2018-04-10T14:07:12.881Z,15.20
2018-04-10T14:09:40.491Z,15.10
2018-04-10T14:12:08.343Z,15.10
2018-04-10T14:14:36.090Z,15.00
2018-04-10T14:17:04.742Z,15.00
2018-04-10T14:19:32.673Z,14.80
2018-04-10T14:22:00.590Z,14.60
2018-04-10T14:24:28.348Z,14.60
2018-04-10T14:26:57.264Z,14.70
2018-04-10T14:29:25.414Z,14.90
2018-04-10T14:31:52.994Z,14.90
2018-04-10T14:34:21.761Z,14.60
2018-04-10T14:36:49.394Z,14.50
2018-04-10T14:39:24.656Z,14.20
2018-04-10T14:41:52.242Z,13.70
2018-04-10T14:44:19.898Z,13.50
2018-04-10T14:46:47.598Z,13.50
2018-04-10T14:49:15.214Z,13.30
2018-04-10T14:51:43.354Z,13.20
2018-04-10T14:54:11.349Z,13.00
2018-04-10T14:56:39.119Z,12.60
2018-04-10T14:59:06.711Z,12.40
2018-04-10T15:01:34.337Z,12.40
2018-04-10T15:04:02.134Z,12.40
2018-04-10T15:06:30.154Z,12.30
2018-04-10T15:08:57.699Z,12.30
2018-04-10T15:11:25.315Z,12.30
2018-04-10T15:13:52.880Z,12.10
2018-04-10T15:16:20.878Z,11.60
2018-04-10T15:18:48.481Z,11.60
2018-04-10T15:21:16.058Z,11.70
2018-04-10T15:23:43.670Z,11.70
2018-04-10T15:26:11.246Z,11.60
2018-04-10T15:28:38.855Z,11.50
2018-04-10T15:31:06.413Z,11.40
2018-04-10T15:33:34.003Z,11.20
2018-04-10T15:36:01.618Z,11.00
2018-04-10T15:38:29.246Z,11.00
2018-04-10T15:40:56.797Z,10.90
2018-04-10T15:43:24.370Z,10.80
2018-04-10T15:45:51.916Z,10.80
2018-04-10T15:48:19.537Z,10.80
2018-04-10T15:50:47.070Z,10.70
2018-04-10T15:53:23.205Z,10.70
2018-04-10T15:55:50.798Z,10.60
2018-04-10T15:58:18.418Z,10.50
2018-04-10T16:00:45.983Z,10.30
2018-04-10T16:03:13.587Z,10.30
2018-04-10T16:05:41.158Z,10.20
2018-04-10T16:08:08.750Z,10.20
2018-04-10T16:10:36.314Z,10.10
2018-04-10T16:13:03.953Z,10.00
2018-04-10T16:15:31.523Z,10.00
2018-04-10T16:17:59.090Z,9.80
2018-04-10T16:20:26.655Z,9.70
2018-04-10T16:22:54.195Z,9.40
2018-04-10T16:25:21.772Z,9.20
2018-04-10T16:27:49.312Z,9.00
2018-04-10T16:30:16.895Z,8.80
2018-04-10T16:32:44.509Z,8.70
2018-04-10T16:35:12.135Z,8.70
2018-04-10T16:37:39.689Z,8.60
2018-04-10T16:40:07.285Z,8.60
2018-04-10T16:42:34.802Z,8.50
2018-04-10T16:45:02.415Z,8.40
2018-04-10T16:47:29.980Z,8.30
2018-04-10T16:49:57.570Z,8.20
2018-04-10T16:52:25.130Z,8.20
2018-04-10T16:54:52.743Z,8.20
2018-04-10T16:57:20.315Z,8.20
2018-04-10T16:59:47.905Z,8.10
2018-04-10T17:02:15.478Z,8.10
2018-04-10T17:04:43.458Z,8.10
2018-04-10T17:07:11.043Z,8.10
2018-04-10T17:09:38.634Z,8.10
2018-04-10T17:12:06.202Z,8.10
2018-04-10T17:14:33.770Z,8.10
2018-04-10T17:17:01.348Z,8.10
2018-04-10T17:19:28.930Z,8.10
2018-04-10T17:21:56.486Z,8.10
2018-04-10T17:24:24.049Z,8.10
2018-04-10T17:26:51.587Z,8.10
2018-04-10T17:29:19.188Z,8.10
2018-04-10T17:31:46.784Z,8.10
2018-04-10T17:34:14.320Z,8.10
2018-04-10T17:36:41.901Z,8.00
2018-04-10T17:39:09.467Z,8.00
2018-04-10T17:41:37.062Z,7.90
2018-04-10T17:44:04.642Z,7.80
2018-04-10T17:46:32.229Z,7.70
2018-04-10T17:48:59.806Z,7.60
2018-04-10T17:51:34.043Z,7.50
2018-04-10T17:54:01.609Z,7.50
2018-04-10T17:56:29.208Z,7.50
2018-04-10T17:58:56.758Z,7.40
2018-04-10T18:01:24.374Z,7.50
2018-04-10T18:03:51.967Z,7.50
2018-04-10T18:06:19.586Z,7.50
2018-04-10T18:08:49.251Z,7.50
2018-04-10T18:11:16.830Z,7.50
2018-04-10T18:13:44.411Z,7.60
2018-04-10T18:16:12.000Z,7.60
2018-04-10T18:18:39.541Z,7.60
2018-04-10T18:21:07.115Z,7.50
2018-04-10T18:23:34.640Z,7.50
2018-04-10T18:26:02.240Z,7.50
2018-04-10T18:28:29.826Z,7.60
2018-04-10T18:30:57.438Z,7.60
2018-04-10T18:33:25.016Z,7.70
2018-04-10T18:35:52.591Z,7.70
2018-04-10T18:38:20.162Z,7.60
2018-04-10T18:40:47.778Z,7.70
2018-04-10T18:43:15.414Z,7.70
2018-04-10T18:45:43.046Z,7.70
2018-04-10T18:48:10.657Z,7.70
2018-04-10T18:50:38.211Z,7.70
2018-04-10T18:53:05.830Z,7.70
2018-04-10T18:55:33.782Z,7.70
2018-04-10T18:58:01.382Z,7.70
2018-04-10T19:00:28.978Z,7.70
2018-04-10T19:02:56.858Z,7.70
2018-04-10T19:05:35.597Z,7.70
2018-04-10T19:08:03.215Z,7.70
2018-04-10T19:10:30.778Z,7.70
2018-04-10T19:12:58.358Z,7.70
2018-04-10T19:15:25.978Z,7.70
2018-04-10T19:17:53.545Z,7.80
2018-04-10T19:20:21.149Z,7.80
2018-04-10T19:22:49.210Z,7.80
2018-04-10T19:25:16.825Z,7.80
2018-04-10T19:27:44.673Z,7.80
2018-04-10T19:30:13.447Z,7.80
2018-04-10T19:32:41.438Z,7.80
2018-04-10T19:35:09.061Z,7.80
2018-04-10T19:37:36.637Z,7.80
2018-04-10T19:40:04.248Z,7.80
2018-04-10T19:42:31.856Z,7.80
2018-04-10T19:44:59.845Z,7.80
2018-04-10T19:47:27.427Z,7.90
2018-04-10T19:49:54.998Z,7.90
2018-04-10T19:52:22.576Z,7.90
2018-04-10T19:54:50.121Z,7.90
2018-04-10T19:57:17.686Z,7.80
2018-04-10T19:59:46.376Z,7.80
2018-04-10T20:02:13.906Z,7.80
2018-04-10T20:04:41.594Z,7.90
2018-04-10T20:07:09.195Z,7.80
2018-04-10T20:09:36.798Z,7.80
2018-04-10T20:12:04.444Z,7.80
2018-04-10T20:14:32.296Z,7.80
2018-04-10T20:16:59.895Z,7.80
2018-04-10T20:19:27.515Z,7.80
2018-04-10T20:21:55.127Z,7.80
2018-04-10T20:24:22.726Z,7.80
2018-04-10T20:26:50.294Z,7.80
2018-04-10T20:29:17.868Z,7.80
2018-04-10T20:31:45.424Z,7.90
2018-04-10T20:34:13.094Z,7.90
2018-04-10T20:36:40.718Z,7.90
2018-04-10T20:39:08.332Z,7.90
2018-04-10T20:41:35.886Z,7.90
2018-04-10T20:44:03.482Z,7.90
2018-04-10T20:46:31.043Z,7.80
2018-04-10T20:48:58.606Z,7.70
2018-04-10T20:51:26.143Z,7.60
2018-04-10T20:53:54.135Z,7.60
2018-04-10T20:56:21.747Z,7.60
2018-04-10T20:58:49.354Z,7.60
2018-04-10T21:01:16.943Z,7.60
2018-04-10T21:03:44.525Z,7.50
2018-04-10T21:06:12.061Z,7.50
2018-04-10T21:08:39.694Z,7.40
2018-04-10T21:11:07.254Z,7.40
2018-04-10T21:13:34.792Z,7.40
2018-04-10T21:16:02.385Z,7.40
2018-04-10T21:18:29.990Z,7.40
2018-04-10T21:20:57.986Z,7.40
2018-04-10T21:23:25.602Z,7.40
2018-04-10T21:25:53.192Z,7.40
2018-04-10T21:28:20.829Z,7.40
2018-04-10T21:30:48.402Z,7.30
2018-04-10T21:33:15.990Z,7.20
2018-04-10T21:35:43.558Z,7.30
2018-04-10T21:38:11.115Z,7.30
2018-04-10T21:40:38.742Z,7.20
2018-04-10T21:43:11.941Z,7.30
2018-04-10T21:45:39.519Z,7.30
2018-04-10T21:48:07.085Z,7.40
2018-04-10T21:50:34.697Z,7.40
2018-04-10T21:53:02.271Z,7.40
2018-04-10T21:55:29.870Z,7.40
2018-04-10T21:57:57.437Z,7.30
2018-04-10T22:00:25.030Z,7.20
2018-04-10T22:02:52.971Z,7.20
2018-04-10T22:05:20.529Z,7.20
2018-04-10T22:07:48.078Z,7.30
2018-04-10T22:10:15.660Z,7.30
2018-04-10T22:12:43.255Z,7.30
2018-04-10T22:15:10.853Z,7.20
2018-04-10T22:17:38.418Z,7.20
2018-04-10T22:20:06.007Z,7.20
2018-04-10T22:22:33.578Z,7.20
2018-04-10T22:25:01.149Z,7.20
2018-04-10T22:27:28.732Z,7.10
2018-04-10T22:29:56.284Z,7.10
2018-04-10T22:32:23.995Z,7.00
2018-04-10T22:34:51.600Z,7.10
2018-04-10T22:37:19.174Z,7.10
2018-04-10T22:39:46.739Z,7.10
2018-04-10T22:42:14.365Z,7.10
2018-04-10T22:44:41.950Z,7.20
2018-04-10T22:47:09.577Z,7.10
2018-04-10T22:49:37.139Z,7.10
2018-04-10T22:52:04.719Z,7.10
2018-04-10T22:54:37.098Z,7.20
2018-04-10T22:57:04.642Z,7.20
2018-04-10T22:59:32.192Z,7.20
2018-04-10T23:01:59.827Z,7.20
2018-04-10T23:04:27.387Z,7.20
2018-04-10T23:06:55.011Z,7.20
2018-04-10T23:09:23.038Z,7.10
2018-04-10T23:11:50.630Z,7.10
2018-04-10T23:14:18.246Z,7.00
2018-04-10T23:16:45.850Z,7.00
2018-04-10T23:19:13.399Z,7.10
2018-04-10T23:21:41.038Z,7.10
2018-04-10T23:24:08.611Z,7.00
2018-04-10T23:26:36.203Z,7.00
2018-04-10T23:29:03.787Z,6.90
2018-04-10T23:31:31.367Z,6.90
2018-04-10T23:33:58.959Z,6.90
2018-04-10T23:36:26.540Z,6.90
2018-04-10T23:38:54.082Z,6.90
2018-04-10T23:41:21.690Z,7.00
2018-04-10T23:43:49.247Z,7.00
2018-04-10T23:46:16.803Z,6.90
2018-04-10T23:48:44.397Z,6.90
2018-04-10T23:51:11.959Z,7.00
2018-04-10T23:53:39.536Z,7.00
2018-04-10T23:56:07.099Z,6.90
2018-04-10T23:58:34.723Z,6.80
